createdAt,value
2022-12-08T00:04:13.355Z,88.13
2022-12-08T00:07:42.335Z,87.55
2022-12-08T00:13:17.738Z,86.51
2022-12-08T00:16:06.344Z,87.50
2022-12-08T00:21:41.359Z,87.85
2022-12-08T00:24:34.545Z,88.35
2022-12-08T00:27:23.193Z,87.32
2022-12-08T00:30:13.045Z,87.86
2022-12-08T00:33:01.450Z,87.89
2022-12-08T00:38:35.877Z,88.94
2022-12-08T00:44:18.694Z,89.66
2022-12-08T00:49:55.881Z,88.38
2022-12-08T00:52:44.309Z,89.41
2022-12-08T00:58:14.118Z,90.19
2022-12-08T01:01:03.609Z,89.36
2022-12-08T01:09:19.458Z,91.71
2022-12-08T01:12:09.281Z,90.66
2022-12-08T01:17:38.628Z,89.25
2022-12-08T01:20:27.039Z,89.19
2022-12-08T01:26:04.889Z,87.56
2022-12-08T01:28:53.365Z,87.78
2022-12-08T01:34:32.226Z,87.80
2022-12-08T01:37:21.489Z,87.65
2022-12-08T01:40:11.701Z,87.74
2022-12-08T01:45:46.865Z,88.53
2022-12-08T01:48:35.240Z,87.39
2022-12-08T01:54:12.733Z,88.40
2022-12-08T01:59:50.789Z,87.48
2022-12-08T02:02:43.002Z,87.13
2022-12-08T02:11:01.312Z,86.10
2022-12-08T02:16:42.093Z,87.09
2022-12-08T02:20:13.219Z,86.95
2022-12-08T02:26:00.303Z,86.71
2022-12-08T02:32:01.746Z,86.96
2022-12-08T02:37:40.145Z,87.21
2022-12-08T02:43:15.540Z,86.64
2022-12-08T02:48:51.017Z,87.66
2022-12-08T02:54:21.240Z,86.27
2022-12-08T03:00:08.674Z,87.54
2022-12-08T03:05:58.063Z,87.10
2022-12-08T03:11:40.478Z,85.64
2022-12-08T03:14:30.024Z,86.08
2022-12-08T03:20:12.863Z,85.81
2022-12-08T03:25:55.720Z,86.48
2022-12-08T03:28:45.100Z,86.62
2022-12-08T03:34:24.517Z,85.95
2022-12-08T03:37:13.160Z,86.60
2022-12-08T03:42:48.373Z,86.10
2022-12-08T03:48:18.377Z,86.18
2022-12-08T03:51:07.027Z,86.38
2022-12-08T03:56:57.660Z,85.51
2022-12-08T03:59:46.093Z,85.41
2022-12-08T04:05:14.009Z,85.79
2022-12-08T04:10:48.256Z,86.56
2022-12-08T04:16:20.213Z,85.67
2022-12-08T04:21:56.924Z,85.77
2022-12-08T04:24:45.533Z,86.15
2022-12-08T04:30:21.515Z,86.77
2022-12-08T04:35:53.131Z,85.60
2022-12-08T04:41:49.278Z,86.48
2022-12-08T04:47:27.189Z,86.46
2022-12-08T04:50:17.875Z,86.29
2022-12-08T04:55:57.493Z,87.17
2022-12-08T04:58:46.368Z,87.19
2022-12-08T05:01:34.636Z,86.50
2022-12-08T05:04:22.717Z,85.68
2022-12-08T05:07:11.112Z,85.14
2022-12-08T05:12:48.343Z,86.21
2022-12-08T05:18:20.225Z,87.29
2022-12-08T05:23:53.133Z,87.11
2022-12-08T05:26:41.501Z,86.70
2022-12-08T05:32:17.302Z,85.53
2022-12-08T05:38:07.757Z,85.09
2022-12-08T05:43:44.193Z,85.55
2022-12-08T05:49:32.777Z,84.22
2022-12-08T05:55:08.401Z,84.51
2022-12-08T05:57:56.587Z,84.24
2022-12-08T06:00:45.304Z,82.81
2022-12-08T06:06:13.841Z,84.04
2022-12-08T06:09:05.338Z,83.18
2022-12-08T06:14:39.734Z,83.75
2022-12-08T06:20:17.556Z,82.93
2022-12-08T06:25:53.443Z,84.82
2022-12-08T06:28:42.633Z,85.07
2022-12-08T06:34:16.720Z,85.58
2022-12-08T06:39:51.739Z,85.13
2022-12-08T06:45:30.212Z,86.75
2022-12-08T06:51:12.192Z,84.99
2022-12-08T06:54:00.793Z,85.31
2022-12-08T06:56:49.202Z,85.10
2022-12-08T07:02:26.767Z,84.36
2022-12-08T07:08:03.129Z,85.42
2022-12-08T07:13:40.743Z,85.27
2022-12-08T07:16:29.165Z,85.12
2022-12-08T07:19:20.438Z,85.02
2022-12-08T07:24:59.506Z,84.96
2022-12-08T07:27:47.682Z,85.70
2022-12-08T07:30:35.848Z,84.90
2022-12-08T07:33:24.689Z,84.61
2022-12-08T07:36:13.441Z,84.80
2022-12-08T07:41:45.779Z,85.00
2022-12-08T07:47:15.821Z,85.17
2022-12-08T07:52:54.868Z,84.66
2022-12-08T07:58:25.628Z,84.48
2022-12-08T08:01:22.952Z,84.51
2022-12-08T08:07:00.190Z,84.22
2022-12-08T08:12:36.677Z,84.21
2022-12-08T08:18:14.326Z,84.48
2022-12-08T08:26:26.541Z,82.83
2022-12-08T08:31:56.340Z,82.04
2022-12-08T08:37:48.773Z,81.53
2022-12-08T08:43:35.986Z,80.58
2022-12-08T08:46:22.138Z,81.13
2022-12-08T08:51:56.564Z,81.36
2022-12-08T08:57:29.067Z,80.46
2022-12-08T09:03:21.495Z,80.42
2022-12-08T09:08:51.235Z,79.35
2022-12-08T09:14:25.856Z,77.54
2022-12-08T09:17:14.672Z,77.55
2022-12-08T09:20:03.499Z,78.15
2022-12-08T09:22:52.205Z,78.77
2022-12-08T09:28:28.205Z,78.52
2022-12-08T09:34:04.638Z,78.27
2022-12-08T09:36:52.707Z,78.25
2022-12-08T09:39:41.344Z,78.37
2022-12-08T09:45:22.739Z,77.38
2022-12-08T09:51:15.408Z,76.18
2022-12-08T09:56:58.807Z,77.13
2022-12-08T10:02:42.979Z,76.29
2022-12-08T10:08:22.773Z,75.70
2022-12-08T10:14:04.777Z,75.77
2022-12-08T10:19:37.846Z,74.93
2022-12-08T10:28:14.974Z,73.91
2022-12-08T10:36:50.465Z,71.23
2022-12-08T10:39:42.870Z,70.93
2022-12-08T10:42:35.243Z,68.96
2022-12-08T10:48:19.654Z,66.33
2022-12-08T10:56:55.312Z,66.10
2022-12-08T10:59:45.895Z,66.45
2022-12-08T11:05:20.036Z,64.99
2022-12-08T11:17:10.476Z,63.77
2022-12-08T11:22:47.118Z,61.07
2022-12-08T11:28:16.366Z,60.07
2022-12-08T11:33:47.840Z,57.91
2022-12-08T11:39:28.210Z,58.38
2022-12-08T11:45:13.386Z,59.31
2022-12-08T11:50:59.693Z,60.41
2022-12-08T11:53:54.144Z,60.06
2022-12-08T11:59:46.900Z,61.90
2022-12-08T12:06:09.321Z,60.20
2022-12-08T12:11:43.375Z,63.60
2022-12-08T12:17:33.618Z,64.98
2022-12-08T12:26:19.653Z,63.26
2022-12-08T12:29:11.432Z,63.51
2022-12-08T12:34:50.887Z,64.86
2022-12-08T12:43:34.128Z,65.31
2022-12-08T12:46:43.900Z,65.58
2022-12-08T12:52:48.543Z,67.06
2022-12-08T12:58:43.848Z,67.28
2022-12-08T13:04:58.921Z,64.35
2022-12-08T13:13:26.125Z,65.29
2022-12-08T13:19:02.411Z,63.75
2022-12-08T13:21:51.174Z,65.67
2022-12-08T13:24:41.020Z,66.34
2022-12-08T13:30:46.933Z,66.65
2022-12-08T13:36:23.692Z,65.56
2022-12-08T13:42:07.060Z,65.29
2022-12-08T13:48:21.727Z,67.62
2022-12-08T13:59:35.288Z,69.38
2022-12-08T14:05:34.830Z,67.93
2022-12-08T14:10:39.719Z,69.52
2022-12-08T14:13:32.259Z,70.13
2022-12-08T14:19:17.246Z,72.23
2022-12-08T14:24:50.148Z,70.42
2022-12-08T14:30:26.732Z,70.25
2022-12-08T14:36:10.584Z,70.05
2022-12-08T14:42:05.695Z,71.21
2022-12-08T14:47:52.610Z,70.27
2022-12-08T14:53:39.463Z,71.27
2022-12-08T14:59:18.989Z,72.14
2022-12-08T15:05:11.976Z,73.58
2022-12-08T15:08:03.853Z,74.07
2022-12-08T15:13:55.171Z,73.60
2022-12-08T15:19:56.998Z,74.09
2022-12-08T15:25:29.411Z,74.89
2022-12-08T15:28:24.001Z,75.49
2022-12-08T15:31:12.661Z,75.23
2022-12-08T15:36:53.956Z,76.10
2022-12-08T15:45:11.192Z,77.30
2022-12-08T15:50:41.635Z,76.64
2022-12-08T15:53:30.325Z,77.11
2022-12-08T15:59:06.090Z,76.71
2022-12-08T16:05:18.320Z,78.05
2022-12-08T16:10:45.511Z,79.81
2022-12-08T16:19:20.425Z,81.25
2022-12-08T16:25:14.748Z,82.05
2022-12-08T16:28:05.262Z,82.74
2022-12-08T16:33:28.004Z,82.67
2022-12-08T16:39:00.010Z,81.97
2022-12-08T16:47:21.226Z,82.00
2022-12-08T16:52:48.340Z,83.14
2022-12-08T16:55:39.214Z,82.91
2022-12-08T17:01:18.933Z,82.97
2022-12-08T17:04:30.483Z,82.88
2022-12-08T17:09:45.025Z,83.57
2022-12-08T17:15:19.350Z,83.42
2022-12-08T17:20:51.872Z,82.75
2022-12-08T17:26:25.229Z,82.34
2022-12-08T17:31:59.983Z,82.74
2022-12-08T17:37:35.132Z,83.12
2022-12-08T17:40:28.155Z,83.63
2022-12-08T17:43:16.365Z,83.08
2022-12-08T17:48:49.159Z,83.47
2022-12-08T17:51:39.272Z,82.22
2022-12-08T17:57:12.100Z,83.18
2022-12-08T18:02:39.479Z,82.97
2022-12-08T18:08:33.104Z,83.36
2022-12-08T18:14:10.181Z,82.94
2022-12-08T18:19:40.073Z,83.23
2022-12-08T18:25:19.456Z,83.24
2022-12-08T18:30:51.242Z,83.22
2022-12-08T18:36:56.124Z,82.86
2022-12-08T18:39:46.410Z,82.80
2022-12-08T18:45:23.210Z,81.94
2022-12-08T18:48:13.695Z,81.95
2022-12-08T18:51:03.904Z,82.15
2022-12-08T18:56:43.627Z,82.62
2022-12-08T19:02:21.209Z,82.36
2022-12-08T19:05:11.762Z,82.67
2022-12-08T19:08:03.463Z,81.94
2022-12-08T19:10:53.468Z,81.87
2022-12-08T19:19:39.593Z,82.16
2022-12-08T19:22:29.530Z,82.13
2022-12-08T19:25:32.762Z,82.55
2022-12-08T19:31:07.953Z,82.10
2022-12-08T19:36:44.424Z,81.58
2022-12-08T19:40:02.181Z,82.27
2022-12-08T19:45:38.964Z,81.89
2022-12-08T19:48:32.340Z,80.68
2022-12-08T19:54:59.045Z,79.71
2022-12-08T19:57:50.547Z,80.34
2022-12-08T20:03:38.544Z,81.14
2022-12-08T20:09:10.710Z,81.33
2022-12-08T20:14:49.764Z,81.60
2022-12-08T20:20:24.829Z,81.65
2022-12-08T20:26:23.438Z,82.10
2022-12-08T20:34:35.245Z,82.05
2022-12-08T20:44:09.810Z,81.20
2022-12-08T20:46:58.591Z,80.60
2022-12-08T20:52:58.547Z,81.59
2022-12-08T20:58:41.789Z,81.58
2022-12-08T21:04:24.075Z,81.19
2022-12-08T21:07:17.826Z,81.62
2022-12-08T21:10:08.679Z,81.80
2022-12-08T21:15:47.171Z,81.93
2022-12-08T21:21:18.548Z,81.38
2022-12-08T21:24:10.640Z,81.83
2022-12-08T21:29:45.268Z,81.53
2022-12-08T21:35:25.213Z,81.47
2022-12-08T21:38:13.718Z,81.62
2022-12-08T21:41:05.130Z,82.17
2022-12-08T21:46:43.807Z,81.70
2022-12-08T21:52:56.569Z,82.14
2022-12-08T21:58:26.389Z,82.58
2022-12-08T22:04:09.217Z,81.94
2022-12-08T22:09:50.377Z,81.52
2022-12-08T22:19:19.982Z,80.89
2022-12-08T23:08:37.306Z,82.07
2022-12-08T23:11:28.879Z,82.09
2022-12-08T23:17:04.573Z,83.28
2022-12-08T23:22:40.553Z,81.51
2022-12-08T23:28:25.325Z,80.82
2022-12-08T23:33:59.948Z,80.94
2022-12-08T23:36:48.677Z,81.38
2022-12-08T23:45:05.480Z,82.55
2022-12-08T23:50:39.584Z,82.69
2022-12-08T23:56:17.406Z,84.07
